createdAt,value
2023-02-17T00:00:17.987Z,0
2023-02-17T00:05:18.269Z,225
2023-02-17T00:10:18.151Z,225
2023-02-17T00:15:18.084Z,225
2023-02-17T00:20:18.030Z,225
2023-02-17T00:25:18.353Z,225
2023-02-17T00:30:18.120Z,248
2023-02-17T00:35:18.087Z,270
2023-02-17T00:40:18.178Z,0
2023-02-17T00:45:18.933Z,0
2023-02-17T00:50:18.520Z,0
2023-02-17T00:55:18.376Z,315
2023-02-17T01:00:18.335Z,0
2023-02-17T01:05:18.135Z,0
2023-02-17T01:10:18.434Z,0
2023-02-17T01:15:18.402Z,0
2023-02-17T01:20:16.210Z,0
2023-02-17T01:25:16.529Z,0
2023-02-17T01:30:16.354Z,180
2023-02-17T01:35:16.288Z,180
2023-02-17T01:40:16.321Z,158
2023-02-17T01:45:16.169Z,158
2023-02-17T01:50:16.257Z,135
2023-02-17T01:55:16.233Z,135
2023-02-17T02:00:16.320Z,135
2023-02-17T02:05:16.304Z,112
2023-02-17T02:10:16.666Z,112
2023-02-17T02:15:16.269Z,112
2023-02-17T02:20:16.315Z,90
2023-02-17T02:25:16.701Z,0
2023-02-17T02:30:16.583Z,0
2023-02-17T02:35:16.577Z,0
2023-02-17T02:40:16.589Z,0
2023-02-17T02:45:16.554Z,0
2023-02-17T02:50:16.514Z,0
2023-02-17T02:55:16.516Z,0
2023-02-17T03:00:16.354Z,112
2023-02-17T03:05:16.387Z,112
2023-02-17T03:10:16.594Z,0
2023-02-17T03:15:16.525Z,135
2023-02-17T03:20:16.695Z,135
2023-02-17T03:25:16.616Z,135
2023-02-17T03:30:16.642Z,158
2023-02-17T03:35:16.611Z,135
2023-02-17T03:40:16.679Z,135
2023-02-17T03:45:16.821Z,112
2023-02-17T03:50:16.536Z,0
2023-02-17T03:55:16.886Z,0
2023-02-17T04:00:16.672Z,0
2023-02-17T04:05:16.472Z,0
2023-02-17T04:10:16.718Z,0
2023-02-17T04:15:16.587Z,0
2023-02-17T04:20:16.696Z,0
2023-02-17T04:25:16.665Z,0
2023-02-17T04:30:17.108Z,0
2023-02-17T04:35:16.703Z,0
2023-02-17T04:40:16.821Z,0
2023-02-17T04:45:16.731Z,0
2023-02-17T04:50:16.775Z,112
2023-02-17T04:55:16.972Z,112
2023-02-17T05:00:17.949Z,135
2023-02-17T05:05:17.683Z,135
2023-02-17T05:10:17.879Z,135
2023-02-17T05:15:17.688Z,135
2023-02-17T05:20:17.893Z,135
2023-02-17T05:25:17.819Z,135
2023-02-17T05:30:19.326Z,0
2023-02-17T05:35:17.896Z,0
2023-02-17T05:40:17.930Z,0
2023-02-17T05:45:18.109Z,0
2023-02-17T05:50:17.847Z,180
2023-02-17T05:55:17.865Z,180
2023-02-17T06:00:18.168Z,0
2023-02-17T06:05:18.016Z,0
2023-02-17T06:10:18.109Z,202
2023-02-17T06:15:17.854Z,202
2023-02-17T06:20:18.034Z,0
2023-02-17T06:25:18.015Z,202
2023-02-17T06:30:18.069Z,225
2023-02-17T06:35:18.359Z,225
2023-02-17T06:40:18.095Z,225
2023-02-17T06:45:18.023Z,225
2023-02-17T06:50:18.165Z,225
2023-02-17T06:55:18.456Z,225
2023-02-17T07:00:18.417Z,225
2023-02-17T07:05:18.406Z,158
2023-02-17T07:10:18.440Z,158
2023-02-17T07:15:17.998Z,158
2023-02-17T07:20:18.142Z,0
2023-02-17T07:25:18.222Z,225
2023-02-17T07:30:18.153Z,202
2023-02-17T07:35:18.122Z,0
2023-02-17T07:40:19.793Z,0
2023-02-17T07:45:18.159Z,0
2023-02-17T07:50:18.174Z,0
2023-02-17T07:55:18.363Z,0
2023-02-17T08:00:16.192Z,0
2023-02-17T08:05:16.418Z,0
2023-02-17T08:15:16.563Z,0
2023-02-17T08:20:16.275Z,180
2023-02-17T08:25:16.309Z,225
2023-02-17T08:30:16.526Z,0
2023-02-17T08:35:16.333Z,0
2023-02-17T08:40:18.541Z,225
2023-02-17T08:45:16.301Z,225
2023-02-17T08:50:16.552Z,225
2023-02-17T08:55:16.396Z,225
2023-02-17T09:00:16.328Z,0
2023-02-17T09:05:16.400Z,0
2023-02-17T09:10:16.563Z,270
2023-02-17T09:15:16.608Z,248
2023-02-17T09:20:24.852Z,248
2023-02-17T09:25:16.740Z,248
2023-02-17T09:30:16.586Z,225
2023-02-17T09:35:16.396Z,225
2023-02-17T09:40:16.615Z,225
2023-02-17T09:45:16.470Z,225
2023-02-17T09:50:16.464Z,225
2023-02-17T09:55:16.887Z,225
2023-02-17T10:00:16.649Z,225
2023-02-17T10:05:16.833Z,225
2023-02-17T10:10:16.559Z,225
2023-02-17T10:15:17.771Z,225
2023-02-17T10:20:16.655Z,0
2023-02-17T10:25:16.631Z,248
2023-02-17T10:30:17.157Z,248
2023-02-17T10:35:16.731Z,248
2023-02-17T10:40:16.646Z,225
2023-02-17T10:45:16.585Z,225
2023-02-17T10:50:16.676Z,0
2023-02-17T10:55:22.701Z,0
2023-02-17T11:00:16.712Z,0
2023-02-17T11:05:16.794Z,0
2023-02-17T11:10:16.883Z,0
2023-02-17T11:15:16.688Z,0
2023-02-17T11:20:16.765Z,0
2023-02-17T11:25:16.761Z,0
2023-02-17T11:30:16.773Z,248
2023-02-17T11:35:16.772Z,225
2023-02-17T11:40:16.964Z,225
2023-02-17T11:45:16.953Z,225
2023-02-17T11:50:16.865Z,225
2023-02-17T11:55:16.891Z,225
2023-02-17T12:00:16.888Z,248
2023-02-17T12:05:17.212Z,0
2023-02-17T12:10:17.165Z,0
2023-02-17T12:15:17.027Z,0
2023-02-17T12:20:17.098Z,0
2023-02-17T12:25:16.977Z,0
2023-02-17T12:30:17.180Z,0
2023-02-17T12:35:16.900Z,0
2023-02-17T12:40:17.008Z,0
2023-02-17T12:45:17.096Z,0
2023-02-17T12:50:17.294Z,248
2023-02-17T12:55:18.686Z,248
2023-02-17T13:00:17.063Z,248
2023-02-17T13:05:16.922Z,248
2023-02-17T13:10:17.184Z,248
2023-02-17T13:15:17.003Z,248
2023-02-17T13:20:17.033Z,248
2023-02-17T13:25:17.405Z,0
2023-02-17T13:30:17.082Z,0
2023-02-17T13:35:17.186Z,0
2023-02-17T13:40:17.444Z,0
2023-02-17T13:45:17.334Z,248
2023-02-17T13:50:17.127Z,225
2023-02-17T13:55:17.351Z,225
2023-02-17T14:00:17.419Z,248
2023-02-17T14:05:16.946Z,248
2023-02-17T14:10:17.235Z,0
2023-02-17T14:15:17.098Z,0
2023-02-17T14:20:17.175Z,0
2023-02-17T14:25:17.202Z,0
2023-02-17T14:30:17.258Z,248
2023-02-17T14:35:17.308Z,248
2023-02-17T14:40:17.304Z,248
2023-02-17T14:45:17.181Z,248
2023-02-17T14:50:17.190Z,0
2023-02-17T14:55:17.390Z,0
2023-02-17T15:00:17.540Z,0
2023-02-17T15:05:17.370Z,0
2023-02-17T15:10:17.545Z,0
2023-02-17T15:15:17.233Z,248
2023-02-17T15:20:18.383Z,248
2023-02-17T15:25:17.329Z,248
2023-02-17T15:30:17.477Z,248
2023-02-17T15:35:18.037Z,248
2023-02-17T15:40:17.519Z,248
2023-02-17T15:45:17.439Z,248
2023-02-17T15:50:19.198Z,0
2023-02-17T15:55:17.416Z,0
2023-02-17T16:00:17.540Z,0
2023-02-17T16:05:17.438Z,248
2023-02-17T16:10:17.739Z,248
2023-02-17T16:15:18.139Z,248
2023-02-17T16:20:17.455Z,248
2023-02-17T16:25:17.493Z,248
2023-02-17T16:30:17.524Z,248
2023-02-17T16:35:17.455Z,248
2023-02-17T16:40:17.705Z,0
2023-02-17T16:45:17.460Z,0
2023-02-17T16:50:17.688Z,0
2023-02-17T16:55:17.519Z,248
2023-02-17T17:00:17.701Z,225
2023-02-17T17:05:17.532Z,248
2023-02-17T17:10:17.737Z,0
2023-02-17T17:15:17.778Z,248
2023-02-17T17:20:17.793Z,225
2023-02-17T17:25:18.148Z,225
2023-02-17T17:30:17.668Z,225
2023-02-17T17:35:17.675Z,225
2023-02-17T17:40:17.792Z,225
2023-02-17T17:45:17.664Z,225
2023-02-17T17:50:17.729Z,248
2023-02-17T17:55:17.732Z,0
2023-02-17T18:00:17.938Z,0
2023-02-17T18:05:17.752Z,0
2023-02-17T18:10:18.140Z,0
2023-02-17T18:15:17.704Z,248
2023-02-17T18:20:17.844Z,248
2023-02-17T18:25:17.871Z,248
2023-02-17T18:30:17.912Z,0
2023-02-17T18:35:18.165Z,0
2023-02-17T18:40:18.003Z,0
2023-02-17T18:45:17.831Z,0
2023-02-17T18:50:17.897Z,0
2023-02-17T18:55:17.917Z,0
2023-02-17T19:00:18.033Z,0
2023-02-17T19:05:18.227Z,0
2023-02-17T19:10:18.115Z,0
2023-02-17T19:15:17.932Z,0
2023-02-17T19:20:18.189Z,0
2023-02-17T19:25:17.900Z,0
2023-02-17T19:30:17.999Z,0
2023-02-17T19:35:17.932Z,0
2023-02-17T19:40:18.343Z,0
2023-02-17T19:45:18.133Z,0
2023-02-17T19:50:17.951Z,0
2023-02-17T19:55:18.087Z,0
2023-02-17T20:00:17.975Z,0
2023-02-17T20:05:18.043Z,0
2023-02-17T20:10:18.129Z,0
2023-02-17T20:15:18.295Z,0
2023-02-17T20:20:18.128Z,0
2023-02-17T20:25:18.407Z,0
2023-02-17T20:30:18.624Z,0
2023-02-17T20:35:18.321Z,0
2023-02-17T20:40:19.184Z,0
2023-02-17T20:45:18.238Z,0
2023-02-17T20:50:18.350Z,0
2023-02-17T20:55:18.511Z,0
2023-02-17T21:00:18.352Z,0
2023-02-17T21:05:18.284Z,0
2023-02-17T21:10:18.472Z,0
2023-02-17T21:15:16.136Z,0
2023-02-17T21:20:16.216Z,0
2023-02-17T21:25:16.483Z,0
2023-02-17T21:30:16.315Z,0
2023-02-17T21:35:16.221Z,0
2023-02-17T21:40:16.629Z,338
2023-02-17T21:45:16.330Z,0
2023-02-17T21:50:16.375Z,0
2023-02-17T21:55:16.269Z,0
2023-02-17T22:00:16.551Z,0
2023-02-17T22:05:16.469Z,0
2023-02-17T22:10:16.535Z,338
2023-02-17T22:15:16.490Z,338
2023-02-17T22:20:16.392Z,338
2023-02-17T22:25:16.597Z,338
2023-02-17T22:30:16.489Z,338
2023-02-17T22:35:16.566Z,338
2023-02-17T22:40:16.708Z,338
2023-02-17T22:45:16.649Z,338
2023-02-17T22:50:16.627Z,0
2023-02-17T22:55:16.446Z,0
2023-02-17T23:00:16.656Z,0
2023-02-17T23:05:19.189Z,0
2023-02-17T23:10:16.488Z,0
2023-02-17T23:15:16.449Z,0
2023-02-17T23:20:16.629Z,0
2023-02-17T23:25:17.462Z,0
2023-02-17T23:30:16.660Z,0
2023-02-17T23:35:16.517Z,0
2023-02-17T23:40:16.998Z,0
2023-02-17T23:45:16.598Z,0
2023-02-17T23:50:17.262Z,0
2023-02-17T23:55:16.601Z,0
